createdAt,value
2022-11-27T00:00:52.540Z,100782.47
2022-11-27T00:03:20.502Z,100775.91
2022-11-27T00:05:53.770Z,100779.78
2022-11-27T00:08:21.664Z,100782.56
2022-11-27T00:10:49.649Z,100776.63
2022-11-27T00:13:17.865Z,100784.28
2022-11-27T00:15:47.254Z,100779.06
2022-11-27T00:18:15.337Z,100787.78
2022-11-27T00:20:43.227Z,100786.31
2022-11-27T00:23:11.090Z,100790.88
2022-11-27T00:25:39.107Z,100775.75
2022-11-27T00:28:07.054Z,100770.94
2022-11-27T00:30:34.913Z,100790.47
2022-11-27T00:33:04.265Z,100673.50
2022-11-27T00:35:32.112Z,100792.47
2022-11-27T00:37:59.991Z,100796.44
2022-11-27T00:40:27.943Z,100793.00
2022-11-27T00:42:55.868Z,100795.63
2022-11-27T00:45:24.014Z,100799.75
2022-11-27T00:47:51.949Z,100782.22
2022-11-27T00:50:21.225Z,100799.19
2022-11-27T00:52:49.095Z,100802.69
2022-11-27T00:55:17.018Z,100802.56
2022-11-27T00:57:45.282Z,100815.09
2022-11-27T01:00:14.651Z,100809.28
2022-11-27T01:02:42.691Z,100805.75
2022-11-27T01:05:11.079Z,100800.69
2022-11-27T01:07:40.380Z,100805.59
2022-11-27T01:10:09.654Z,100802.84
2022-11-27T01:12:37.563Z,100793.91
2022-11-27T01:15:06.201Z,100790.16
2022-11-27T01:17:34.145Z,100793.81
2022-11-27T01:20:02.061Z,100786.66
2022-11-27T01:22:29.967Z,100793.00
2022-11-27T01:24:59.260Z,100792.66
2022-11-27T01:27:27.119Z,100796.69
2022-11-27T01:29:55.020Z,100794.22
2022-11-27T01:32:22.906Z,100796.81
2022-11-27T01:34:50.872Z,100792.31
2022-11-27T01:37:18.908Z,100790.25
2022-11-27T01:39:46.844Z,100782.78
2022-11-27T01:42:16.264Z,100788.66
2022-11-27T01:44:59.399Z,100789.28
2022-11-27T01:47:37.403Z,100794.66
2022-11-27T01:50:20.389Z,100790.50
2022-11-27T01:52:52.921Z,100786.13
2022-11-27T01:55:28.884Z,100776.31
2022-11-27T01:58:01.737Z,100789.84
2022-11-27T02:00:30.659Z,100792.63
2022-11-27T02:02:58.614Z,100789.19
2022-11-27T02:05:29.216Z,100775.03
2022-11-27T02:08:00.423Z,100781.69
2022-11-27T02:10:39.958Z,100782.69
2022-11-27T02:13:14.584Z,100785.38
2022-11-27T02:15:48.021Z,100781.88
2022-11-27T02:18:23.455Z,100777.69
2022-11-27T02:20:59.383Z,100771.38
2022-11-27T02:23:52.257Z,100781.44
2022-11-27T02:26:56.630Z,100787.69
2022-11-27T02:29:29.358Z,100789.72
2022-11-27T02:32:00.555Z,100790.78
2022-11-27T02:34:35.564Z,100788.69
2022-11-27T02:37:10.819Z,100784.47
2022-11-27T02:39:45.742Z,100788.13
2022-11-27T02:42:18.911Z,100788.53
2022-11-27T02:44:52.046Z,100788.44
2022-11-27T02:47:21.945Z,100789.19
2022-11-27T02:49:52.237Z,100784.94
2022-11-27T02:52:21.377Z,100792.91
2022-11-27T02:54:53.082Z,100795.63
2022-11-27T02:57:22.119Z,100792.56
2022-11-27T02:59:52.616Z,100801.09
2022-11-27T03:02:24.085Z,100804.25
2022-11-27T03:04:54.400Z,100806.78
2022-11-27T03:07:27.774Z,100789.63
2022-11-27T03:10:00.774Z,100804.16
2022-11-27T03:12:28.955Z,100804.47
2022-11-27T03:14:58.391Z,100806.63
2022-11-27T03:17:37.362Z,100810.22
2022-11-27T03:20:12.102Z,100806.81
2022-11-27T03:22:40.170Z,100791.38
2022-11-27T03:25:08.859Z,100801.44
2022-11-27T03:27:42.084Z,100803.31
2022-11-27T03:30:15.538Z,100797.34
2022-11-27T03:32:44.217Z,100805.19
2022-11-27T03:35:16.285Z,100807.38
2022-11-27T03:37:44.452Z,100808.41
2022-11-27T03:40:14.095Z,100812.56
2022-11-27T03:42:53.640Z,100805.94
2022-11-27T03:45:33.159Z,100815.41
2022-11-27T03:48:15.291Z,100811.34
2022-11-27T03:50:54.911Z,100788.47
2022-11-27T03:53:30.620Z,100810.38
2022-11-27T03:56:10.179Z,100788.75
2022-11-27T03:58:42.317Z,100809.19
2022-11-27T04:01:14.925Z,100810.97
2022-11-27T04:03:42.972Z,100817.97
2022-11-27T04:06:11.791Z,100811.34
2022-11-27T04:08:40.176Z,100800.53
2022-11-27T04:11:08.903Z,100798.63
2022-11-27T04:13:37.137Z,100797.19
2022-11-27T04:16:05.506Z,100787.97
2022-11-27T04:18:35.069Z,100764.22
2022-11-27T04:21:03.209Z,100797.22
2022-11-27T04:23:31.128Z,100800.09
2022-11-27T04:25:59.089Z,100800.09
2022-11-27T04:28:27.120Z,100799.97
2022-11-27T04:30:55.424Z,100798.63
2022-11-27T04:33:24.177Z,100799.66
2022-11-27T04:35:53.519Z,100810.00
2022-11-27T04:38:22.605Z,100800.19
2022-11-27T04:40:52.700Z,100802.72
2022-11-27T04:43:20.686Z,100795.53
2022-11-27T04:45:48.625Z,100794.38
2022-11-27T04:48:16.769Z,100799.16
2022-11-27T04:50:44.696Z,100800.53
2022-11-27T04:53:16.320Z,100787.38
2022-11-27T04:55:44.264Z,100808.41
2022-11-27T04:58:15.282Z,100815.16
2022-11-27T05:00:43.202Z,100805.19
2022-11-27T05:03:12.562Z,100802.06
2022-11-27T05:05:40.539Z,100805.19
2022-11-27T05:08:08.495Z,100800.53
2022-11-27T05:10:37.820Z,100783.44
2022-11-27T05:13:05.766Z,100813.28
2022-11-27T05:15:33.686Z,100813.16
2022-11-27T05:18:01.558Z,100794.38
2022-11-27T05:20:29.459Z,100812.03
2022-11-27T05:22:57.315Z,100810.72
2022-11-27T05:25:25.250Z,100823.41
2022-11-27T05:27:54.542Z,100821.16
2022-11-27T05:30:22.408Z,100830.97
2022-11-27T05:32:50.296Z,100830.53
2022-11-27T05:35:18.345Z,100828.69
2022-11-27T05:37:46.214Z,100832.34
2022-11-27T05:40:14.933Z,100811.09
2022-11-27T05:42:42.937Z,100822.53
2022-11-27T05:45:12.796Z,100826.56
2022-11-27T05:47:40.743Z,100825.22
2022-11-27T05:50:09.458Z,100830.41
2022-11-27T05:52:37.378Z,100812.09
2022-11-27T05:55:05.928Z,100838.25
2022-11-27T05:57:33.801Z,100854.91
2022-11-27T06:00:01.731Z,100852.31
2022-11-27T06:02:31.459Z,100848.66
2022-11-27T06:04:59.476Z,100852.09
2022-11-27T06:07:27.429Z,100831.88
2022-11-27T06:09:55.400Z,100856.38
2022-11-27T06:12:23.420Z,100857.53
2022-11-27T06:14:51.351Z,100852.00
2022-11-27T06:17:19.314Z,100857.72
2022-11-27T06:19:48.669Z,100865.63
2022-11-27T06:22:16.835Z,100855.28
2022-11-27T06:24:44.808Z,100861.66
2022-11-27T06:27:12.769Z,100855.88
2022-11-27T06:29:40.686Z,100858.47
2022-11-27T06:32:08.706Z,100857.00
2022-11-27T06:34:36.864Z,100859.44
2022-11-27T06:37:10.399Z,100854.34
2022-11-27T06:39:40.873Z,100842.69
2022-11-27T06:42:08.834Z,100864.19
2022-11-27T06:44:36.767Z,100849.31
2022-11-27T06:47:04.724Z,100854.91
2022-11-27T06:49:32.686Z,100846.06
2022-11-27T06:52:00.583Z,100860.31
2022-11-27T06:54:29.876Z,100865.28
2022-11-27T06:56:58.456Z,100861.72
2022-11-27T06:59:26.380Z,100858.97
2022-11-27T07:01:54.387Z,100856.38
2022-11-27T07:04:22.407Z,100859.13
2022-11-27T07:06:50.530Z,100856.41
2022-11-27T07:09:19.042Z,100857.81
2022-11-27T07:11:48.421Z,100863.72
2022-11-27T07:14:16.402Z,100854.22
2022-11-27T07:16:44.346Z,100846.75
2022-11-27T07:19:12.394Z,100861.97
2022-11-27T07:21:40.808Z,100859.88
2022-11-27T07:24:09.273Z,100859.59
2022-11-27T07:26:37.181Z,100862.50
2022-11-27T07:29:06.413Z,100863.38
2022-11-27T07:31:34.543Z,100868.28
2022-11-27T07:34:03.035Z,100866.69
2022-11-27T07:36:32.910Z,100851.44
2022-11-27T07:39:00.870Z,100867.53
2022-11-27T07:41:33.749Z,100860.88
2022-11-27T07:44:02.277Z,100867.56
2022-11-27T07:46:31.658Z,100865.50
2022-11-27T07:49:00.687Z,100850.06
2022-11-27T07:51:28.923Z,100866.38
2022-11-27T07:53:56.923Z,100872.78
2022-11-27T07:56:24.913Z,100866.53
2022-11-27T07:58:52.858Z,100866.84
2022-11-27T08:01:21.747Z,100860.91
2022-11-27T08:03:51.386Z,100868.16
2022-11-27T08:06:21.530Z,100863.56
2022-11-27T08:08:50.507Z,100860.03
2022-11-27T08:11:21.501Z,100863.81
2022-11-27T08:13:49.805Z,100847.00
2022-11-27T08:16:18.034Z,100866.34
2022-11-27T08:18:45.991Z,100865.59
2022-11-27T08:21:15.533Z,100865.34
2022-11-27T08:23:43.521Z,100860.31
2022-11-27T08:26:14.833Z,100853.88
2022-11-27T08:28:43.505Z,100852.59
2022-11-27T08:31:13.539Z,100856.88
2022-11-27T08:33:42.134Z,100836.97
2022-11-27T08:36:16.376Z,100862.16
2022-11-27T08:38:47.266Z,100855.03
2022-11-27T08:41:15.330Z,100830.72
2022-11-27T08:43:43.297Z,100848.75
2022-11-27T08:46:12.268Z,100857.03
2022-11-27T08:48:40.535Z,100851.50
2022-11-27T08:51:11.023Z,100854.66
2022-11-27T08:53:39.320Z,100850.06
2022-11-27T08:56:11.037Z,100852.94
2022-11-27T08:58:41.123Z,100849.56
2022-11-27T09:01:33.532Z,100849.72
2022-11-27T09:04:01.669Z,100847.06
2022-11-27T09:06:31.774Z,100838.22
2022-11-27T09:09:01.124Z,100838.44
2022-11-27T09:11:32.349Z,100844.25
2022-11-27T09:14:00.711Z,100837.38
2022-11-27T09:16:30.207Z,100836.91
2022-11-27T09:18:59.017Z,100832.41
2022-11-27T09:21:28.743Z,100828.28
2022-11-27T09:23:57.626Z,100819.22
2022-11-27T09:26:26.640Z,100818.63
2022-11-27T09:28:57.049Z,100813.97
2022-11-27T09:31:26.045Z,100814.63
2022-11-27T09:33:54.041Z,100806.22
2022-11-27T09:36:23.848Z,100806.50
2022-11-27T09:38:52.519Z,100799.56
2022-11-27T09:41:38.706Z,100789.06
2022-11-27T09:44:28.715Z,100787.38
2022-11-27T09:47:01.056Z,100784.00
2022-11-27T09:49:33.768Z,100779.09
2022-11-27T09:52:05.200Z,100775.47
2022-11-27T09:54:38.702Z,100768.16
2022-11-27T09:57:07.920Z,100754.84
2022-11-27T09:59:44.359Z,100752.50
2022-11-27T10:02:19.161Z,100764.13
2022-11-27T10:05:12.313Z,100756.03
2022-11-27T10:07:43.140Z,100749.31
2022-11-27T10:10:26.837Z,100736.69
2022-11-27T10:13:05.406Z,100750.31
2022-11-27T10:15:43.340Z,100747.13
2022-11-27T10:18:15.649Z,100751.00
2022-11-27T10:20:47.246Z,100747.28
2022-11-27T10:23:25.890Z,100742.59
2022-11-27T10:26:00.162Z,100735.97
2022-11-27T10:28:36.532Z,100739.16
2022-11-27T10:31:13.101Z,100733.66
2022-11-27T10:33:44.815Z,100729.47
2022-11-27T10:36:19.039Z,100727.84
2022-11-27T10:38:49.140Z,100721.97
2022-11-27T10:41:48.210Z,100714.91
2022-11-27T10:44:28.574Z,100705.75
2022-11-27T10:47:02.617Z,100684.00
2022-11-27T10:49:30.862Z,100688.97
2022-11-27T10:51:58.905Z,100690.53
2022-11-27T10:54:29.521Z,100670.53
2022-11-27T10:57:09.744Z,100692.16
2022-11-27T10:59:44.453Z,100581.75
2022-11-27T11:02:30.147Z,100681.22
2022-11-27T11:05:24.221Z,100675.31
2022-11-27T11:07:59.289Z,100675.53
2022-11-27T11:10:31.277Z,100640.44
2022-11-27T11:13:17.640Z,100660.78
2022-11-27T11:15:55.301Z,100642.28
2022-11-27T11:18:26.656Z,100658.53
2022-11-27T11:20:56.681Z,100655.84
2022-11-27T11:23:30.890Z,100654.41
2022-11-27T11:26:03.766Z,100658.63
2022-11-27T11:28:38.014Z,100654.06
2022-11-27T11:31:10.472Z,100657.16
2022-11-27T11:33:49.792Z,100649.78
2022-11-27T11:36:17.780Z,100648.94
2022-11-27T11:38:47.932Z,100639.13
2022-11-27T11:41:18.124Z,100638.81
2022-11-27T11:43:56.649Z,100632.41
2022-11-27T11:46:28.486Z,100631.78
2022-11-27T11:49:03.881Z,100630.19
2022-11-27T11:51:56.571Z,100628.41
2022-11-27T11:54:39.801Z,100621.44
2022-11-27T11:57:32.603Z,100617.78
2022-11-27T12:00:05.439Z,100626.94
2022-11-27T12:02:42.877Z,100613.69
2022-11-27T12:05:25.538Z,100591.78
2022-11-27T12:08:18.169Z,100608.09
2022-11-27T12:10:59.306Z,100609.16
2022-11-27T12:13:40.908Z,100600.28
2022-11-27T12:16:16.721Z,100597.59
2022-11-27T12:18:57.947Z,100596.38
2022-11-27T12:21:39.054Z,100590.00
2022-11-27T12:24:34.646Z,100590.34
2022-11-27T12:27:16.793Z,100589.19
2022-11-27T12:30:15.030Z,100589.19
2022-11-27T12:33:19.244Z,100592.34
2022-11-27T12:35:53.511Z,100586.84
2022-11-27T12:38:39.617Z,100587.19
2022-11-27T12:41:24.721Z,100593.06
2022-11-27T12:43:59.983Z,100585.25
2022-11-27T12:46:35.139Z,100572.34
2022-11-27T12:49:07.048Z,100577.03
2022-11-27T12:51:40.685Z,100563.69
2022-11-27T12:54:15.430Z,100579.19
2022-11-27T12:56:48.394Z,100564.78
2022-11-27T12:59:22.420Z,100581.34
2022-11-27T13:02:02.563Z,100576.31
2022-11-27T13:04:38.472Z,100578.16
2022-11-27T13:07:11.955Z,100581.59
2022-11-27T13:09:50.942Z,100554.22
2022-11-27T13:12:27.350Z,100579.09
2022-11-27T13:15:04.168Z,100562.72
2022-11-27T13:17:40.468Z,100575.31
2022-11-27T13:20:17.538Z,100558.00
2022-11-27T13:22:46.806Z,100578.84
2022-11-27T13:25:16.421Z,100567.00
2022-11-27T13:27:47.843Z,100576.25
2022-11-27T13:30:24.091Z,100578.66
2022-11-27T13:32:54.846Z,100580.16
2022-11-27T13:35:28.028Z,100575.53
2022-11-27T13:38:05.946Z,100574.16
2022-11-27T13:40:40.703Z,100578.19
2022-11-27T13:43:21.608Z,100575.34
2022-11-27T13:45:51.998Z,100571.59
2022-11-27T13:48:34.108Z,100569.94
2022-11-27T13:51:02.530Z,100566.66
2022-11-27T13:53:38.674Z,100563.38
2022-11-27T13:56:09.280Z,100560.69
2022-11-27T13:58:39.043Z,100542.81
2022-11-27T14:01:16.444Z,100568.00
2022-11-27T14:03:44.934Z,100572.56
2022-11-27T14:06:19.424Z,100553.78
2022-11-27T14:08:59.624Z,100564.44
2022-11-27T14:11:40.210Z,100569.47
2022-11-27T14:14:19.179Z,100559.75
2022-11-27T14:16:58.706Z,100561.59
2022-11-27T14:19:34.468Z,100559.06
2022-11-27T14:22:03.366Z,100562.63
2022-11-27T14:24:43.895Z,100568.66
2022-11-27T14:27:22.571Z,100563.75
2022-11-27T14:29:51.115Z,100564.75
2022-11-27T14:32:21.205Z,100564.22
2022-11-27T14:34:49.780Z,100563.47
2022-11-27T14:37:25.653Z,100566.91
2022-11-27T14:39:54.308Z,100558.56
2022-11-27T14:42:29.110Z,100545.16
2022-11-27T14:45:05.706Z,100558.75
2022-11-27T14:47:33.714Z,100560.69
2022-11-27T14:50:03.571Z,100563.63
2022-11-27T14:52:31.984Z,100555.13
2022-11-27T14:55:01.754Z,100559.16
2022-11-27T14:57:31.658Z,100562.97
2022-11-27T15:00:05.998Z,100550.69
2022-11-27T15:02:34.003Z,100560.66
2022-11-27T15:05:06.752Z,100553.47
2022-11-27T15:07:45.333Z,100559.53
2022-11-27T15:10:31.461Z,100555.81
2022-11-27T15:13:02.542Z,100556.16
2022-11-27T15:15:34.671Z,100560.19
2022-11-27T15:18:05.974Z,100562.81
2022-11-27T15:20:41.910Z,100569.63
2022-11-27T15:23:18.037Z,100562.47
2022-11-27T15:25:48.868Z,100567.88
2022-11-27T15:28:36.534Z,100569.41
2022-11-27T15:31:20.658Z,100565.88
2022-11-27T15:33:58.723Z,100559.75
2022-11-27T15:36:28.682Z,100556.19
2022-11-27T15:39:21.778Z,100561.22
2022-11-27T15:41:56.847Z,100563.69
2022-11-27T15:44:29.569Z,100556.88
2022-11-27T15:47:01.738Z,100570.75
2022-11-27T15:49:32.025Z,100556.31
2022-11-27T15:52:01.342Z,100550.53
2022-11-27T15:54:30.487Z,100553.28
2022-11-27T15:56:59.849Z,100550.03
2022-11-27T15:59:31.225Z,100550.03
2022-11-27T16:02:00.804Z,100546.66
2022-11-27T16:04:30.857Z,100551.31
2022-11-27T16:07:00.032Z,100545.91
2022-11-27T16:09:29.777Z,100535.88
2022-11-27T16:12:01.704Z,100540.94
2022-11-27T16:14:33.070Z,100539.94
2022-11-27T16:17:02.719Z,100513.72
2022-11-27T16:19:32.240Z,100547.94
2022-11-27T16:22:02.163Z,100543.66
2022-11-27T16:24:31.939Z,100538.88
2022-11-27T16:27:01.329Z,100542.91
2022-11-27T16:29:32.319Z,100543.06
2022-11-27T16:32:02.388Z,100542.06
2022-11-27T16:34:32.092Z,100543.13
2022-11-27T16:37:01.565Z,100540.03
2022-11-27T16:39:31.114Z,100537.34
2022-11-27T16:42:00.608Z,100546.00
2022-11-27T16:44:30.312Z,100547.63
2022-11-27T16:47:01.299Z,100548.09
2022-11-27T16:49:31.090Z,100541.88
2022-11-27T16:52:00.704Z,100540.38
2022-11-27T16:54:32.866Z,100539.28
2022-11-27T16:57:02.424Z,100543.00
2022-11-27T16:59:32.279Z,100545.16
2022-11-27T17:02:03.952Z,100529.78
2022-11-27T17:04:33.933Z,100540.78
2022-11-27T17:07:03.699Z,100543.31
2022-11-27T17:09:33.438Z,100539.38
2022-11-27T17:12:02.960Z,100538.34
2022-11-27T17:14:32.662Z,100532.44
2022-11-27T17:17:14.221Z,100535.50
2022-11-27T17:19:44.179Z,100538.28
2022-11-27T17:22:14.327Z,100519.53
2022-11-27T17:24:44.290Z,100532.78
2022-11-27T17:27:16.006Z,100535.97
2022-11-27T17:29:45.837Z,100526.66
2022-11-27T17:32:20.494Z,100533.63
2022-11-27T17:34:51.550Z,100534.59
2022-11-27T17:37:21.443Z,100535.94
2022-11-27T17:39:50.966Z,100540.25
2022-11-27T17:42:23.066Z,100523.09
2022-11-27T17:44:52.272Z,100537.50
2022-11-27T17:47:24.199Z,100540.19
2022-11-27T17:49:54.029Z,100541.91
2022-11-27T17:52:24.137Z,100549.03
2022-11-27T17:54:54.036Z,100552.22
2022-11-27T17:57:23.895Z,100542.50
2022-11-27T17:59:53.686Z,100549.50
2022-11-27T18:02:25.266Z,100545.16
2022-11-27T18:04:55.067Z,100544.22
2022-11-27T18:07:24.913Z,100541.66
2022-11-27T18:09:54.762Z,100536.44
2022-11-27T18:12:27.373Z,100534.28
2022-11-27T18:15:01.071Z,100535.72
2022-11-27T18:17:33.058Z,100547.88
2022-11-27T18:20:03.845Z,100540.66
2022-11-27T18:22:33.981Z,100539.72
2022-11-27T18:25:03.833Z,100537.09
2022-11-27T18:27:34.571Z,100549.78
2022-11-27T18:30:05.648Z,100541.09
2022-11-27T18:32:38.633Z,100540.50
2022-11-27T18:35:09.309Z,100544.22
2022-11-27T18:37:39.337Z,100545.78
2022-11-27T18:40:11.096Z,100551.06
2022-11-27T18:42:41.003Z,100544.25
2022-11-27T18:45:31.316Z,100547.03
2022-11-27T18:48:03.526Z,100542.84
2022-11-27T18:50:33.578Z,100543.47
2022-11-27T18:53:04.831Z,100533.16
2022-11-27T18:55:37.632Z,100543.00
2022-11-27T18:58:07.708Z,100543.22
2022-11-27T19:00:37.770Z,100518.00
2022-11-27T19:03:09.330Z,100537.09
2022-11-27T19:05:39.335Z,100535.00
2022-11-27T19:08:10.367Z,100532.38
2022-11-27T19:10:40.432Z,100530.69
2022-11-27T19:13:11.777Z,100533.47
2022-11-27T19:15:42.763Z,100531.84
2022-11-27T19:18:19.010Z,100535.31
2022-11-27T19:20:49.496Z,100523.88
2022-11-27T19:23:19.629Z,100528.91
2022-11-27T19:25:49.588Z,100527.41
2022-11-27T19:28:19.595Z,100522.69
2022-11-27T19:30:49.533Z,100524.34
2022-11-27T19:33:21.175Z,100516.66
2022-11-27T19:35:51.053Z,100523.38
2022-11-27T19:38:20.926Z,100522.47
2022-11-27T19:40:50.986Z,100522.94
2022-11-27T19:43:20.894Z,100513.81
2022-11-27T19:45:48.953Z,100519.72
2022-11-27T19:48:23.407Z,100511.38
2022-11-27T19:50:55.486Z,100523.25
2022-11-27T19:53:26.074Z,100520.88
2022-11-27T19:55:56.256Z,100523.41
2022-11-27T19:58:26.241Z,100517.16
2022-11-27T20:00:56.241Z,100519.03
2022-11-27T20:03:29.917Z,100521.47
2022-11-27T20:06:05.166Z,100519.44
2022-11-27T20:08:35.862Z,100514.22
2022-11-27T20:11:08.160Z,100515.84
2022-11-27T20:13:38.253Z,100461.69
2022-11-27T20:16:10.085Z,100521.16
2022-11-27T20:18:44.394Z,100511.66
2022-11-27T20:21:17.089Z,100506.44
2022-11-27T20:23:48.619Z,100493.47
2022-11-27T20:26:21.202Z,100507.78
2022-11-27T20:28:54.788Z,100504.16
2022-11-27T20:31:29.037Z,100508.59
2022-11-27T20:34:02.873Z,100507.44
2022-11-27T20:36:34.182Z,100505.00
2022-11-27T20:39:04.558Z,100494.34
2022-11-27T20:41:37.854Z,100494.16
2022-11-27T20:44:08.064Z,100502.63
2022-11-27T20:46:38.007Z,100496.59
2022-11-27T20:49:10.684Z,100490.81
2022-11-27T20:51:40.784Z,100473.81
2022-11-27T20:54:14.475Z,100489.88
2022-11-27T20:56:45.638Z,100495.41
2022-11-27T20:59:15.346Z,100492.63
2022-11-27T21:01:44.787Z,100492.81
2022-11-27T21:04:23.702Z,100490.47
2022-11-27T21:06:53.027Z,100485.66
2022-11-27T21:09:22.502Z,100485.59
2022-11-27T21:11:51.542Z,100480.03
2022-11-27T21:14:20.404Z,100490.63
2022-11-27T21:16:50.863Z,100467.03
2022-11-27T21:19:22.641Z,100479.88
2022-11-27T21:21:52.550Z,100472.06
2022-11-27T21:24:25.717Z,100469.88
2022-11-27T21:26:54.461Z,100478.53
2022-11-27T21:29:25.580Z,100475.16
2022-11-27T21:31:55.432Z,100470.72
2022-11-27T21:34:25.320Z,100452.03
2022-11-27T21:36:53.265Z,100469.03
2022-11-27T21:39:21.715Z,100477.16
2022-11-27T21:41:51.590Z,100468.53
2022-11-27T21:44:19.601Z,100464.06
2022-11-27T21:46:48.140Z,100466.09
2022-11-27T21:49:17.507Z,100459.88
2022-11-27T21:51:47.142Z,100456.19
2022-11-27T21:54:16.010Z,100461.31
2022-11-27T21:56:44.039Z,100450.97
2022-11-27T21:59:14.636Z,100448.44
2022-11-27T22:01:45.244Z,100463.91
2022-11-27T22:04:14.759Z,100461.72
2022-11-27T22:06:45.152Z,100473.31
2022-11-27T22:09:16.010Z,100473.41
2022-11-27T22:11:45.878Z,100477.00
2022-11-27T22:14:15.390Z,100469.78
2022-11-27T22:16:45.869Z,100434.31
2022-11-27T22:19:15.524Z,100459.78
2022-11-27T22:21:43.852Z,100458.84
2022-11-27T22:24:18.458Z,100461.22
2022-11-27T22:26:49.456Z,100452.91
2022-11-27T22:29:17.692Z,100451.22
2022-11-27T22:31:45.808Z,100452.97
2022-11-27T22:34:14.143Z,100448.44
2022-11-27T22:36:42.054Z,100452.66
2022-11-27T22:39:11.566Z,100450.44
2022-11-27T22:41:41.684Z,100449.69
2022-11-27T22:44:15.242Z,100432.91
2022-11-27T22:46:43.535Z,100457.56
2022-11-27T22:49:13.925Z,100458.63
2022-11-27T22:51:42.298Z,100456.22
2022-11-27T22:54:13.777Z,100463.00
2022-11-27T22:56:41.787Z,100462.00
2022-11-27T22:59:31.561Z,100461.13
2022-11-27T23:02:00.210Z,100465.25
2022-11-27T23:04:28.530Z,100462.88
2022-11-27T23:06:56.724Z,100462.66
2022-11-27T23:09:24.900Z,100454.91
2022-11-27T23:11:53.017Z,100457.91
2022-11-27T23:14:22.366Z,100462.66
2022-11-27T23:16:50.465Z,100463.72
2022-11-27T23:19:18.620Z,100452.34
2022-11-27T23:21:46.591Z,100440.03
2022-11-27T23:24:16.053Z,100438.81
2022-11-27T23:26:45.945Z,100455.91
2022-11-27T23:29:15.078Z,100450.81
2022-11-27T23:31:44.621Z,100453.09
2022-11-27T23:34:15.981Z,100448.59
2022-11-27T23:36:44.392Z,100443.31
2022-11-27T23:39:14.207Z,100445.75
2022-11-27T23:41:42.692Z,100452.41
2022-11-27T23:44:11.060Z,100453.88
2022-11-27T23:46:39.015Z,100450.88
2022-11-27T23:49:08.445Z,100451.41
2022-11-27T23:51:36.738Z,100451.72
2022-11-27T23:54:09.155Z,100445.97
2022-11-27T23:56:37.696Z,100453.78
2022-11-27T23:59:06.049Z,100450.41
